createdAt,value
2019-05-26T00:00:49.521Z,22.70
2019-05-26T00:01:49.509Z,22.79
2019-05-26T00:02:49.496Z,22.74
2019-05-26T00:03:49.502Z,22.76
2019-05-26T00:04:49.492Z,22.75
2019-05-26T00:05:49.467Z,22.74
2019-05-26T00:06:49.457Z,22.82
2019-05-26T00:07:49.451Z,22.70
2019-05-26T00:08:49.476Z,22.69
2019-05-26T00:09:49.423Z,22.72
2019-05-26T00:10:49.417Z,22.70
2019-05-26T00:11:49.407Z,22.74
2019-05-26T00:12:49.394Z,22.75
2019-05-26T00:13:49.392Z,22.78
2019-05-26T00:14:49.415Z,22.75
2019-05-26T00:15:49.382Z,22.76
2019-05-26T00:16:49.368Z,22.74
2019-05-26T00:17:49.340Z,22.75
2019-05-26T00:18:49.330Z,22.72
2019-05-26T00:19:49.322Z,22.76
2019-05-26T00:20:49.312Z,22.75
2019-05-26T00:21:49.304Z,22.75
2019-05-26T00:22:49.294Z,22.76
2019-05-26T00:23:49.273Z,22.79
2019-05-26T00:24:49.275Z,22.70
2019-05-26T00:25:49.271Z,22.75
2019-05-26T00:26:49.263Z,22.76
2019-05-26T00:27:49.235Z,22.79
2019-05-26T00:28:59.994Z,22.74
2019-05-26T00:29:49.214Z,22.70
2019-05-26T00:30:49.236Z,22.79
2019-05-26T00:31:49.193Z,22.75
2019-05-26T00:32:49.183Z,22.76
2019-05-26T00:33:49.167Z,22.75
2019-05-26T00:34:49.156Z,22.78
2019-05-26T00:35:49.143Z,22.78
2019-05-26T00:36:49.190Z,22.76
2019-05-26T00:59:59.474Z,22.76
2019-05-26T01:04:48.840Z,22.78
2019-05-26T01:30:59.387Z,22.70
2019-05-26T01:35:48.518Z,22.76
2019-05-26T02:06:48.175Z,22.79
2019-05-26T02:37:47.877Z,22.79
2019-05-26T03:08:47.509Z,22.81
2019-05-26T03:39:47.192Z,22.86
2019-05-26T04:10:46.886Z,22.82
2019-05-26T04:41:46.518Z,22.88
2019-05-26T05:12:46.194Z,22.84
2019-05-26T05:43:45.859Z,22.96
2019-05-26T06:14:45.619Z,22.89
2019-05-26T06:28:45.412Z,22.91
2019-05-26T06:29:58.443Z,22.86
2019-05-26T06:30:46.366Z,22.85
2019-05-26T06:31:45.455Z,22.97
2019-05-26T06:32:45.336Z,22.93
2019-05-26T06:33:45.329Z,22.89
2019-05-26T06:34:45.325Z,22.88
2019-05-26T06:35:45.321Z,22.89
2019-05-26T06:36:45.293Z,22.86
2019-05-26T06:37:45.308Z,22.93
2019-05-26T06:38:45.274Z,22.88
2019-05-26T06:39:45.295Z,22.96
2019-05-26T06:40:55.958Z,22.96
2019-05-26T06:42:45.232Z,22.93
2019-05-26T06:43:45.216Z,22.88
2019-05-26T06:44:53.451Z,22.91
2019-05-26T06:45:46.208Z,22.99
2019-05-26T06:46:45.185Z,22.91
2019-05-26T06:47:45.187Z,22.97
2019-05-26T06:48:45.173Z,22.89
2019-05-26T06:49:45.157Z,22.97
2019-05-26T06:50:45.146Z,22.94
2019-05-26T06:51:45.143Z,23.00
2019-05-26T06:52:45.141Z,22.99
2019-05-26T06:53:45.111Z,22.85
2019-05-26T06:54:45.100Z,22.99
2019-05-26T06:55:45.134Z,22.94
2019-05-26T06:56:45.085Z,22.89
2019-05-26T06:57:45.084Z,22.94
2019-05-26T06:58:45.055Z,22.96
2019-05-26T06:59:45.050Z,23.00
2019-05-26T07:00:45.039Z,23.03
2019-05-26T07:01:45.079Z,22.96
2019-05-26T07:02:45.016Z,23.04
2019-05-26T07:03:45.015Z,23.01
2019-05-26T07:04:45.000Z,23.00
2019-05-26T07:05:44.982Z,23.01
2019-05-26T07:06:44.970Z,23.01
2019-05-26T07:07:44.973Z,23.00
2019-05-26T07:08:44.951Z,22.99
2019-05-26T07:09:44.937Z,23.04
2019-05-26T07:10:44.925Z,23.01
2019-05-26T07:11:59.870Z,22.96
2019-05-26T07:12:45.972Z,22.97
2019-05-26T07:13:44.899Z,23.01
2019-05-26T07:14:44.892Z,23.06
2019-05-26T07:15:44.879Z,23.06
2019-05-26T07:16:44.867Z,23.06
2019-05-26T07:17:44.884Z,23.07
2019-05-26T07:18:44.886Z,23.06
2019-05-26T07:19:44.838Z,23.06
2019-05-26T07:20:44.826Z,23.03
2019-05-26T07:21:44.815Z,23.01
2019-05-26T07:22:44.805Z,23.03
2019-05-26T07:23:44.806Z,23.03
2019-05-26T07:24:44.799Z,23.01
2019-05-26T07:25:44.773Z,23.06
2019-05-26T07:26:44.759Z,23.03
2019-05-26T07:27:44.746Z,23.06
2019-05-26T07:28:44.738Z,22.99
2019-05-26T07:29:44.741Z,23.03
2019-05-26T07:30:44.757Z,23.03
2019-05-26T07:31:44.714Z,23.09
2019-05-26T07:32:44.697Z,23.00
2019-05-26T07:33:44.707Z,23.14
2019-05-26T07:34:44.689Z,23.07
2019-05-26T07:35:44.667Z,23.03
2019-05-26T07:36:44.675Z,23.03
2019-05-26T07:37:44.642Z,23.07
2019-05-26T07:38:44.636Z,23.14
2019-05-26T07:39:44.621Z,23.14
2019-05-26T07:40:44.622Z,23.19
2019-05-26T07:41:44.608Z,23.15
2019-05-26T07:42:55.240Z,23.09
2019-05-26T07:43:44.580Z,23.22
2019-05-26T07:44:44.572Z,23.22
2019-05-26T07:45:44.579Z,23.15
2019-05-26T07:46:44.542Z,23.22
2019-05-26T07:47:44.540Z,23.16
2019-05-26T07:48:44.527Z,23.15
2019-05-26T07:49:44.521Z,23.09
2019-05-26T07:50:44.501Z,23.09
2019-05-26T07:51:44.503Z,23.15
2019-05-26T07:52:44.494Z,23.11
2019-05-26T07:53:44.475Z,23.18
2019-05-26T07:54:44.483Z,23.18
2019-05-26T07:55:44.459Z,23.19
2019-05-26T07:56:44.454Z,23.15
2019-05-26T07:57:44.434Z,23.15
2019-05-26T07:58:44.429Z,23.22
2019-05-26T07:59:44.416Z,23.19
2019-05-26T08:00:44.420Z,23.18
2019-05-26T08:01:44.386Z,23.22
2019-05-26T08:02:44.385Z,23.22
2019-05-26T08:03:44.367Z,23.16
2019-05-26T08:04:44.354Z,23.18
2019-05-26T08:05:44.351Z,23.21
2019-05-26T08:06:44.333Z,23.21
2019-05-26T08:07:44.359Z,23.22
2019-05-26T08:08:44.315Z,23.21
2019-05-26T08:09:44.300Z,23.22
2019-05-26T08:10:44.291Z,23.26
2019-05-26T08:11:44.283Z,23.19
2019-05-26T08:12:44.269Z,23.15
2019-05-26T08:13:55.303Z,23.18
2019-05-26T08:14:44.246Z,23.25
2019-05-26T08:15:44.234Z,23.16
2019-05-26T08:16:44.226Z,23.16
2019-05-26T08:17:44.213Z,23.14
2019-05-26T08:18:44.209Z,23.15
2019-05-26T08:19:44.209Z,23.21
2019-05-26T08:20:44.188Z,23.22
2019-05-26T08:21:44.180Z,23.23
2019-05-26T08:22:44.162Z,23.22
2019-05-26T08:23:44.155Z,23.21
2019-05-26T08:24:44.163Z,23.21
2019-05-26T08:25:44.131Z,23.23
2019-05-26T08:26:44.124Z,23.18
2019-05-26T08:27:44.110Z,23.26
2019-05-26T08:28:44.103Z,23.25
2019-05-26T08:29:44.112Z,23.22
2019-05-26T08:30:44.073Z,23.22
2019-05-26T08:31:44.071Z,23.22
2019-05-26T08:32:44.060Z,23.23
2019-05-26T08:33:44.046Z,23.23
2019-05-26T08:34:44.050Z,23.22
2019-05-26T08:35:44.020Z,23.26
2019-05-26T08:36:44.021Z,23.26
2019-05-26T08:37:44.004Z,23.22
2019-05-26T08:38:44.011Z,23.22
2019-05-26T08:39:47.997Z,23.23
2019-05-26T08:40:43.972Z,23.21
2019-05-26T08:41:43.969Z,23.18
2019-05-26T08:42:44.820Z,23.23
2019-05-26T08:43:43.938Z,23.21
2019-05-26T08:44:54.417Z,23.23
2019-05-26T08:45:43.931Z,23.26
2019-05-26T08:46:43.906Z,23.25
2019-05-26T08:47:43.928Z,23.23
2019-05-26T08:48:43.886Z,23.25
2019-05-26T08:49:43.871Z,23.23
2019-05-26T08:50:43.864Z,23.22
2019-05-26T08:51:43.859Z,23.26
2019-05-26T08:52:43.842Z,23.26
2019-05-26T08:53:43.841Z,23.23
2019-05-26T08:54:43.824Z,23.19
2019-05-26T08:55:43.812Z,23.25
2019-05-26T08:56:43.804Z,23.23
2019-05-26T08:57:43.794Z,23.18
2019-05-26T08:58:43.792Z,23.25
2019-05-26T08:59:43.764Z,23.18
2019-05-26T09:00:43.782Z,23.22
2019-05-26T09:01:43.747Z,23.19
2019-05-26T09:02:43.749Z,23.19
2019-05-26T09:03:43.734Z,23.18
2019-05-26T09:04:43.710Z,23.18
2019-05-26T09:05:43.701Z,23.21
2019-05-26T09:06:43.689Z,23.19
2019-05-26T09:07:43.679Z,23.19
2019-05-26T09:08:43.682Z,23.23
2019-05-26T09:09:43.662Z,23.22
2019-05-26T09:10:43.652Z,23.22
2019-05-26T09:11:43.649Z,23.18
2019-05-26T09:12:43.629Z,23.22
2019-05-26T09:13:43.635Z,23.22
2019-05-26T09:14:43.622Z,23.23
2019-05-26T09:15:53.883Z,23.19
2019-05-26T09:16:43.586Z,23.21
2019-05-26T09:17:43.571Z,23.21
2019-05-26T09:18:43.568Z,23.18
2019-05-26T09:19:43.567Z,23.18
2019-05-26T09:20:43.538Z,23.19
2019-05-26T09:21:43.532Z,23.15
2019-05-26T09:22:43.531Z,23.21
2019-05-26T09:23:43.511Z,23.19
2019-05-26T09:24:43.495Z,23.21
2019-05-26T09:25:46.398Z,23.19
2019-05-26T09:26:43.479Z,23.12
2019-05-26T09:27:43.473Z,23.15
2019-05-26T09:28:43.480Z,23.07
2019-05-26T09:29:43.452Z,23.18
2019-05-26T09:30:43.472Z,23.15
2019-05-26T09:31:43.431Z,23.15
2019-05-26T09:32:43.419Z,23.19
2019-05-26T09:33:43.405Z,23.12
2019-05-26T09:34:43.401Z,23.19
2019-05-26T09:35:43.396Z,23.11
2019-05-26T09:36:43.406Z,23.14
2019-05-26T09:37:43.364Z,23.12
2019-05-26T09:38:43.348Z,23.11
2019-05-26T09:39:43.337Z,23.14
2019-05-26T09:40:43.329Z,23.09
2019-05-26T09:41:43.324Z,23.16
2019-05-26T09:42:43.325Z,23.11
2019-05-26T09:43:43.309Z,23.16
2019-05-26T09:44:43.290Z,23.19
2019-05-26T09:45:43.273Z,23.19
2019-05-26T09:46:53.243Z,23.09
2019-05-26T09:47:43.297Z,23.18
2019-05-26T09:48:43.245Z,23.21
2019-05-26T09:49:43.235Z,23.19
2019-05-26T09:50:43.222Z,23.25
2019-05-26T09:51:43.215Z,23.21
2019-05-26T09:52:43.212Z,23.22
2019-05-26T09:53:43.197Z,23.21
2019-05-26T09:54:43.198Z,23.22
2019-05-26T09:55:43.173Z,23.22
2019-05-26T09:56:43.160Z,23.21
2019-05-26T09:57:43.145Z,23.26
2019-05-26T09:58:43.156Z,23.23
2019-05-26T09:59:43.148Z,23.22
2019-05-26T10:00:43.115Z,23.26
2019-05-26T10:01:43.113Z,23.25
2019-05-26T10:02:43.099Z,23.23
2019-05-26T10:03:43.094Z,23.25
2019-05-26T10:04:43.084Z,23.26
2019-05-26T10:05:43.066Z,23.34
2019-05-26T10:06:43.067Z,23.26
2019-05-26T10:07:43.047Z,23.21
2019-05-26T10:08:43.030Z,23.22
2019-05-26T10:09:43.038Z,23.22
2019-05-26T10:10:43.045Z,23.23
2019-05-26T10:11:43.014Z,23.31
2019-05-26T10:12:42.991Z,23.23
2019-05-26T10:13:42.981Z,23.31
2019-05-26T10:14:42.966Z,23.37
2019-05-26T10:15:42.963Z,23.35
2019-05-26T10:16:42.954Z,23.29
2019-05-26T10:17:53.457Z,23.26
2019-05-26T10:18:42.919Z,23.38
2019-05-26T10:19:42.924Z,23.38
2019-05-26T10:20:42.910Z,23.26
2019-05-26T10:21:42.890Z,23.32
2019-05-26T10:22:42.886Z,23.31
2019-05-26T10:23:42.874Z,23.29
2019-05-26T10:24:42.870Z,23.34
2019-05-26T10:25:42.856Z,23.32
2019-05-26T10:26:42.837Z,23.32
2019-05-26T10:27:42.842Z,23.41
2019-05-26T10:28:42.817Z,23.32
2019-05-26T10:29:42.806Z,23.37
2019-05-26T10:30:42.804Z,23.37
2019-05-26T10:31:42.812Z,23.31
2019-05-26T10:32:42.785Z,23.31
2019-05-26T10:33:42.766Z,23.26
2019-05-26T10:34:42.752Z,23.26
2019-05-26T10:35:42.738Z,23.39
2019-05-26T10:36:42.737Z,23.31
2019-05-26T10:37:42.737Z,23.37
2019-05-26T10:38:42.706Z,23.35
2019-05-26T10:39:45.000Z,23.38
2019-05-26T10:40:42.692Z,23.25
2019-05-26T10:41:42.682Z,23.29
2019-05-26T10:42:42.688Z,23.34
2019-05-26T10:43:47.283Z,23.34
2019-05-26T10:44:43.639Z,23.25
2019-05-26T10:45:42.640Z,23.35
2019-05-26T10:46:42.666Z,23.26
2019-05-26T10:47:42.618Z,23.26
2019-05-26T10:48:53.057Z,23.32
2019-05-26T10:49:42.595Z,23.29
2019-05-26T10:50:42.580Z,23.34
2019-05-26T10:51:42.570Z,23.22
2019-05-26T10:52:42.576Z,23.23
2019-05-26T10:53:42.555Z,23.26
2019-05-26T10:54:42.545Z,23.25
2019-05-26T10:55:42.529Z,23.26
2019-05-26T10:56:42.521Z,23.25
2019-05-26T10:57:42.524Z,23.23
2019-05-26T10:58:42.507Z,23.22
2019-05-26T10:59:42.489Z,23.16
2019-05-26T11:00:42.481Z,23.21
2019-05-26T11:01:42.461Z,23.21
2019-05-26T11:02:42.451Z,23.16
2019-05-26T11:03:42.454Z,23.21
2019-05-26T11:04:42.447Z,23.29
2019-05-26T11:05:42.420Z,23.22
2019-05-26T11:06:42.412Z,23.16
2019-05-26T11:07:42.401Z,23.19
2019-05-26T11:08:42.443Z,23.18
2019-05-26T11:09:42.375Z,23.18
2019-05-26T11:10:42.366Z,23.22
2019-05-26T11:11:42.357Z,23.25
2019-05-26T11:12:42.351Z,23.19
2019-05-26T11:13:42.394Z,23.19
2019-05-26T11:14:42.369Z,23.16
2019-05-26T11:15:42.318Z,23.19
2019-05-26T11:16:42.306Z,23.18
2019-05-26T11:17:42.291Z,23.25
2019-05-26T11:18:42.281Z,23.25
2019-05-26T11:19:52.953Z,23.22
2019-05-26T11:20:42.257Z,23.22
2019-05-26T11:21:42.253Z,23.31
2019-05-26T11:22:42.238Z,23.21
2019-05-26T11:23:42.229Z,23.19
2019-05-26T11:24:42.220Z,23.21
2019-05-26T11:25:42.245Z,23.19
2019-05-26T11:26:42.198Z,23.16
2019-05-26T11:27:42.197Z,23.22
2019-05-26T11:28:42.178Z,23.16
2019-05-26T11:29:42.163Z,23.15
2019-05-26T11:30:42.164Z,23.21
2019-05-26T11:31:42.161Z,23.16
2019-05-26T11:32:42.139Z,23.21
2019-05-26T11:33:42.150Z,23.19
2019-05-26T11:34:42.110Z,23.18
2019-05-26T11:35:42.101Z,23.16
2019-05-26T11:36:42.107Z,23.14
2019-05-26T11:37:42.100Z,23.16
2019-05-26T11:38:42.077Z,23.18
2019-05-26T11:39:42.946Z,23.23
2019-05-26T11:40:42.051Z,23.19
2019-05-26T11:41:42.045Z,23.18
2019-05-26T11:42:44.859Z,23.18
2019-05-26T11:43:42.012Z,23.16
2019-05-26T11:44:42.004Z,23.22
2019-05-26T11:45:41.991Z,23.16
2019-05-26T11:46:41.994Z,23.23
2019-05-26T11:47:41.981Z,23.26
2019-05-26T11:48:41.970Z,23.26
2019-05-26T11:49:41.952Z,23.23
2019-05-26T11:50:52.679Z,23.29
2019-05-26T11:51:41.925Z,23.18
2019-05-26T11:52:41.931Z,23.22
2019-05-26T11:53:41.917Z,23.23
2019-05-26T11:54:41.900Z,23.23
2019-05-26T11:55:41.882Z,23.26
2019-05-26T11:56:41.878Z,23.22
2019-05-26T11:57:41.891Z,23.26
2019-05-26T11:58:41.851Z,23.22
2019-05-26T11:59:41.844Z,23.21
2019-05-26T12:00:41.857Z,23.32
2019-05-26T12:01:41.823Z,23.23
2019-05-26T12:02:41.811Z,23.32
2019-05-26T12:03:41.844Z,23.35
2019-05-26T12:04:41.790Z,23.32
2019-05-26T12:05:41.790Z,23.26
2019-05-26T12:06:41.765Z,23.26
2019-05-26T12:07:41.756Z,23.34
2019-05-26T12:08:41.746Z,23.35
2019-05-26T12:09:41.745Z,23.31
2019-05-26T12:10:41.727Z,23.31
2019-05-26T12:11:41.717Z,23.34
2019-05-26T12:12:41.701Z,23.26
2019-05-26T12:13:41.704Z,23.34
2019-05-26T12:14:41.703Z,23.29
2019-05-26T12:15:41.667Z,23.34
2019-05-26T12:16:41.663Z,23.45
2019-05-26T12:17:41.654Z,23.31
2019-05-26T12:18:41.642Z,23.26
2019-05-26T12:19:41.636Z,23.29
2019-05-26T12:20:41.625Z,23.26
2019-05-26T12:21:51.755Z,23.26
2019-05-26T12:22:41.592Z,23.38
2019-05-26T12:23:41.591Z,23.41
2019-05-26T12:24:41.574Z,23.34
2019-05-26T12:25:41.584Z,23.35
2019-05-26T12:26:41.565Z,23.26
2019-05-26T12:27:41.553Z,23.34
2019-05-26T12:28:41.534Z,23.25
2019-05-26T12:29:41.529Z,23.38
2019-05-26T12:30:41.531Z,23.41
2019-05-26T12:31:41.510Z,23.31
2019-05-26T12:32:41.487Z,23.29
2019-05-26T12:33:41.479Z,23.37
2019-05-26T12:34:41.473Z,23.39
2019-05-26T12:35:41.475Z,23.39
2019-05-26T12:36:41.483Z,23.35
2019-05-26T12:37:41.436Z,23.37
2019-05-26T12:38:41.425Z,23.31
2019-05-26T12:39:41.415Z,23.31
2019-05-26T12:40:41.399Z,23.41
2019-05-26T12:41:41.410Z,23.31
2019-05-26T12:42:41.392Z,23.44
2019-05-26T12:43:41.377Z,23.29
2019-05-26T12:44:49.563Z,23.38
2019-05-26T12:45:42.349Z,23.31
2019-05-26T12:46:41.349Z,23.39
2019-05-26T12:47:41.369Z,23.31
2019-05-26T12:48:41.322Z,23.34
2019-05-26T12:49:41.303Z,23.35
2019-05-26T12:50:41.302Z,23.34
2019-05-26T12:51:41.297Z,23.34
2019-05-26T12:52:52.050Z,23.39
2019-05-26T12:53:41.264Z,23.32
2019-05-26T12:54:41.263Z,23.35
2019-05-26T12:55:41.242Z,23.37
2019-05-26T12:56:41.252Z,23.26
2019-05-26T12:57:41.229Z,23.25
2019-05-26T12:58:41.245Z,23.34
2019-05-26T12:59:41.227Z,23.25
2019-05-26T13:00:49.484Z,23.32
2019-05-26T13:01:42.185Z,23.34
2019-05-26T13:02:41.269Z,23.32
2019-05-26T13:03:41.161Z,23.26
2019-05-26T13:04:41.158Z,23.35
2019-05-26T13:05:41.142Z,23.31
2019-05-26T13:06:41.124Z,23.34
2019-05-26T13:07:41.122Z,23.34
2019-05-26T13:08:41.119Z,23.34
2019-05-26T13:09:41.102Z,23.29
2019-05-26T13:10:41.092Z,23.22
2019-05-26T13:11:41.079Z,23.23
2019-05-26T13:12:41.071Z,23.29
2019-05-26T13:13:41.064Z,23.23
2019-05-26T13:14:41.048Z,23.22
2019-05-26T13:15:41.056Z,23.22
2019-05-26T13:16:41.024Z,23.23
2019-05-26T13:17:41.006Z,23.18
2019-05-26T13:18:40.999Z,23.23
2019-05-26T13:19:40.985Z,23.29
2019-05-26T13:20:40.996Z,23.26
2019-05-26T13:21:41.000Z,23.16
2019-05-26T13:22:41.101Z,23.21
2019-05-26T13:23:51.464Z,23.19
2019-05-26T13:24:40.943Z,23.26
2019-05-26T13:25:40.928Z,23.18
2019-05-26T13:26:40.934Z,23.11
2019-05-26T13:27:40.902Z,23.19
2019-05-26T13:28:40.888Z,23.16
2019-05-26T13:29:40.877Z,23.19
2019-05-26T13:30:40.886Z,23.21
2019-05-26T13:31:40.860Z,23.14
2019-05-26T13:32:40.860Z,23.15
2019-05-26T13:33:40.848Z,23.16
2019-05-26T13:34:40.829Z,23.22
2019-05-26T13:35:40.812Z,23.16
2019-05-26T13:36:40.815Z,23.19
2019-05-26T13:37:40.797Z,23.14
2019-05-26T13:38:40.792Z,23.12
2019-05-26T13:39:40.774Z,23.18
2019-05-26T13:40:40.763Z,23.18
2019-05-26T13:41:40.809Z,23.06
2019-05-26T13:42:40.741Z,23.04
2019-05-26T13:43:40.804Z,23.14
2019-05-26T13:44:40.736Z,23.19
2019-05-26T13:45:40.713Z,23.06
2019-05-26T13:46:40.703Z,23.11
2019-05-26T13:47:40.729Z,23.12
2019-05-26T13:48:40.675Z,23.11
2019-05-26T13:49:40.670Z,23.12
2019-05-26T13:50:40.657Z,23.07
2019-05-26T13:51:40.664Z,23.14
2019-05-26T13:52:40.647Z,23.06
2019-05-26T13:53:40.634Z,23.14
2019-05-26T13:54:51.124Z,23.15
2019-05-26T13:55:40.602Z,23.09
2019-05-26T13:56:40.591Z,22.96
2019-05-26T13:57:40.580Z,23.06
2019-05-26T13:58:40.586Z,23.07
2019-05-26T13:59:40.558Z,23.03
2019-05-26T14:00:40.545Z,23.09
2019-05-26T14:01:40.546Z,23.04
2019-05-26T14:02:40.532Z,23.07
2019-05-26T14:03:40.517Z,23.04
2019-05-26T14:04:40.509Z,23.09
2019-05-26T14:05:40.529Z,23.01
2019-05-26T14:06:40.485Z,23.03
2019-05-26T14:07:40.482Z,23.11
2019-05-26T14:08:40.488Z,23.06
2019-05-26T14:09:40.457Z,23.06
2019-05-26T14:10:40.440Z,23.03
2019-05-26T14:11:40.450Z,23.06
2019-05-26T14:12:40.418Z,22.97
2019-05-26T14:13:40.422Z,23.06
2019-05-26T14:14:40.399Z,22.99
2019-05-26T14:15:40.398Z,23.04
2019-05-26T14:16:40.385Z,23.04
2019-05-26T14:17:40.373Z,23.00
2019-05-26T14:18:40.352Z,22.94
2019-05-26T14:19:40.347Z,22.99
2019-05-26T14:20:40.376Z,22.99
2019-05-26T14:21:40.327Z,22.93
2019-05-26T14:22:40.315Z,22.93
2019-05-26T14:23:40.314Z,23.00
2019-05-26T14:24:52.837Z,23.03
2019-05-26T14:25:50.288Z,22.93
2019-05-26T14:26:40.272Z,22.94
2019-05-26T14:27:40.294Z,22.88
2019-05-26T14:28:40.247Z,22.94
2019-05-26T14:29:40.236Z,22.84
2019-05-26T14:30:40.239Z,22.93
2019-05-26T14:31:40.216Z,22.86
2019-05-26T14:32:40.249Z,22.88
2019-05-26T14:33:40.209Z,22.91
2019-05-26T14:34:40.209Z,22.91
2019-05-26T14:35:40.175Z,22.93
2019-05-26T14:36:40.165Z,22.88
2019-05-26T14:37:40.206Z,22.89
2019-05-26T14:38:43.509Z,22.93
2019-05-26T14:39:40.139Z,22.91
2019-05-26T14:40:40.129Z,22.89
2019-05-26T14:41:40.116Z,22.93
2019-05-26T14:42:40.101Z,22.89
2019-05-26T14:43:40.097Z,22.94
2019-05-26T14:44:40.090Z,22.86
2019-05-26T14:45:52.343Z,22.88
2019-05-26T14:46:41.052Z,22.85
2019-05-26T14:47:40.039Z,22.81
2019-05-26T14:48:40.045Z,22.94
2019-05-26T14:49:40.048Z,22.85
2019-05-26T14:50:41.037Z,22.88
2019-05-26T14:51:40.009Z,22.94
2019-05-26T14:52:39.999Z,22.89
2019-05-26T14:53:39.992Z,22.93
2019-05-26T14:54:39.983Z,22.88
2019-05-26T14:55:39.957Z,22.84
2019-05-26T14:56:49.960Z,22.85
2019-05-26T14:57:39.951Z,22.91
2019-05-26T14:58:39.930Z,22.88
2019-05-26T14:59:39.924Z,22.91
2019-05-26T15:00:39.905Z,22.91
2019-05-26T15:01:39.896Z,22.94
2019-05-26T15:02:39.890Z,22.89
2019-05-26T15:03:39.879Z,22.86
2019-05-26T15:04:39.871Z,22.94
2019-05-26T15:05:39.863Z,22.81
2019-05-26T15:06:39.848Z,22.84
2019-05-26T15:07:39.840Z,22.84
2019-05-26T15:08:39.820Z,22.82
2019-05-26T15:09:39.815Z,22.88
2019-05-26T15:10:39.808Z,22.89
2019-05-26T15:11:39.823Z,22.82
2019-05-26T15:12:39.777Z,22.78
2019-05-26T15:13:39.762Z,22.79
2019-05-26T15:14:39.776Z,22.82
2019-05-26T15:15:39.749Z,22.85
2019-05-26T15:16:39.746Z,22.81
2019-05-26T15:17:39.734Z,22.82
2019-05-26T15:18:39.727Z,22.82
2019-05-26T15:19:39.701Z,22.81
2019-05-26T15:20:39.695Z,22.81
2019-05-26T15:21:39.724Z,22.79
2019-05-26T15:22:39.678Z,22.79
2019-05-26T15:23:39.663Z,22.85
2019-05-26T15:24:39.652Z,22.84
2019-05-26T15:25:39.638Z,22.82
2019-05-26T15:26:39.640Z,22.78
2019-05-26T15:27:52.185Z,22.78
2019-05-26T15:28:39.609Z,22.78
2019-05-26T15:29:39.595Z,22.81
2019-05-26T15:30:39.606Z,22.78
2019-05-26T15:31:39.584Z,22.78
2019-05-26T15:32:39.613Z,22.75
2019-05-26T15:33:39.559Z,22.81
2019-05-26T15:34:39.561Z,22.79
2019-05-26T15:35:39.528Z,22.82
2019-05-26T15:36:39.521Z,22.78
2019-05-26T15:37:39.605Z,22.81
2019-05-26T15:38:42.992Z,22.81
2019-05-26T15:39:39.501Z,22.76
2019-05-26T15:40:39.481Z,22.75
2019-05-26T15:41:39.469Z,22.78
2019-05-26T15:42:39.501Z,22.79
2019-05-26T15:43:39.443Z,22.81
2019-05-26T15:44:39.436Z,22.81
2019-05-26T15:45:39.423Z,22.76
2019-05-26T15:46:39.417Z,22.78
2019-05-26T15:47:39.403Z,22.76
2019-05-26T15:48:39.444Z,22.82
2019-05-26T15:49:39.400Z,22.79
2019-05-26T15:50:39.374Z,22.82
2019-05-26T15:51:39.366Z,22.76
2019-05-26T15:52:39.344Z,22.76
2019-05-26T15:53:39.346Z,22.81
2019-05-26T15:54:39.380Z,22.78
2019-05-26T15:55:40.285Z,22.78
2019-05-26T15:56:39.308Z,22.78
2019-05-26T15:57:39.313Z,22.75
2019-05-26T15:58:49.602Z,22.79
2019-05-26T15:59:39.275Z,22.72
2019-05-26T16:00:39.270Z,22.79
2019-05-26T16:01:39.258Z,22.78
2019-05-26T16:02:39.247Z,22.74
2019-05-26T16:03:39.291Z,22.76
2019-05-26T16:04:39.224Z,22.76
2019-05-26T16:05:39.223Z,22.81
2019-05-26T16:06:39.211Z,22.78
2019-05-26T16:07:39.190Z,22.78
2019-05-26T16:08:39.176Z,22.74
2019-05-26T16:09:39.172Z,22.79
2019-05-26T16:10:39.170Z,22.69
2019-05-26T16:11:39.151Z,22.78
2019-05-26T16:12:39.151Z,22.69
2019-05-26T16:13:39.130Z,22.70
2019-05-26T16:14:39.116Z,22.72
2019-05-26T16:15:39.115Z,22.75
2019-05-26T16:16:41.709Z,22.78
2019-05-26T16:17:39.359Z,22.75
2019-05-26T16:18:39.076Z,22.74
2019-05-26T16:19:39.065Z,22.76
2019-05-26T16:20:39.055Z,22.74
2019-05-26T16:22:39.056Z,22.70
2019-05-26T16:23:39.025Z,22.74
2019-05-26T16:24:39.069Z,22.69
2019-05-26T16:25:39.006Z,22.75
2019-05-26T16:26:38.998Z,22.72
2019-05-26T16:27:38.979Z,22.76
2019-05-26T16:28:38.983Z,22.76
2019-05-26T16:30:38.949Z,22.74
2019-05-26T16:32:38.934Z,22.70
2019-05-26T16:33:38.960Z,22.75
2019-05-26T16:34:38.902Z,22.74
2019-05-26T16:35:38.892Z,22.70
2019-05-26T16:36:38.888Z,22.75
2019-05-26T16:38:38.857Z,22.72
2019-05-26T16:39:38.849Z,22.74
2019-05-26T16:40:38.841Z,22.75
2019-05-26T16:41:38.830Z,22.70
2019-05-26T16:42:38.851Z,22.75
2019-05-26T16:43:38.805Z,22.74
2019-05-26T16:44:38.792Z,22.72
2019-05-26T16:45:38.789Z,22.74
2019-05-26T16:46:38.777Z,22.74
2019-05-26T16:47:38.771Z,22.72
2019-05-26T16:48:38.810Z,22.72
2019-05-26T16:49:38.743Z,22.74
2019-05-26T16:50:38.782Z,22.72
2019-05-26T16:51:38.721Z,22.72
2019-05-26T16:53:38.702Z,22.70
2019-05-26T16:54:38.698Z,22.72
2019-05-26T16:55:38.701Z,22.69
2019-05-26T16:56:38.666Z,22.69
2019-05-26T16:57:38.675Z,22.75
2019-05-26T16:58:38.645Z,22.74
2019-05-26T16:59:38.685Z,22.70
2019-05-26T17:00:49.048Z,22.67
2019-05-26T17:03:38.595Z,22.76
2019-05-26T17:04:38.585Z,22.70
2019-05-26T17:05:38.586Z,22.69
2019-05-26T17:06:38.564Z,22.69
2019-05-26T17:07:38.570Z,22.72
2019-05-26T17:09:38.543Z,22.75
2019-05-26T17:10:38.520Z,22.75
2019-05-26T17:11:38.518Z,22.69
2019-05-26T17:12:38.501Z,22.74
2019-05-26T17:13:38.512Z,22.75
2019-05-26T17:14:38.536Z,22.79
2019-05-26T17:15:38.465Z,22.75
2019-05-26T17:16:38.479Z,22.69
2019-05-26T17:17:38.446Z,22.75
2019-05-26T17:18:38.434Z,22.74
2019-05-26T17:19:38.424Z,22.72
2019-05-26T17:20:38.454Z,22.75
2019-05-26T17:21:38.401Z,22.70
2019-05-26T17:22:38.404Z,22.78
2019-05-26T17:24:38.372Z,22.72
2019-05-26T17:25:38.375Z,22.70
2019-05-26T17:26:38.360Z,22.75
2019-05-26T17:27:38.340Z,22.72
2019-05-26T17:28:38.323Z,22.67
2019-05-26T17:29:38.318Z,22.81
2019-05-26T17:30:38.310Z,22.74
2019-05-26T17:31:48.806Z,22.69
2019-05-26T17:32:38.306Z,22.75
2019-05-26T17:34:38.263Z,22.70
2019-05-26T17:35:38.251Z,22.69
2019-05-26T17:36:38.238Z,22.70
2019-05-26T17:37:38.237Z,22.64
2019-05-26T17:38:38.224Z,22.63
2019-05-26T17:40:38.197Z,22.61
2019-05-26T17:41:38.217Z,22.64
2019-05-26T17:42:38.212Z,22.76
2019-05-26T17:43:38.169Z,22.63
2019-05-26T17:44:38.183Z,22.72
2019-05-26T17:45:38.148Z,22.69
2019-05-26T17:46:38.137Z,22.69
2019-05-26T17:47:38.124Z,22.66
2019-05-26T17:48:38.124Z,22.66
2019-05-26T17:49:38.101Z,22.63
2019-05-26T17:50:38.106Z,22.75
2019-05-26T17:51:38.094Z,22.64
2019-05-26T17:52:38.082Z,22.67
2019-05-26T17:53:38.068Z,22.63
2019-05-26T17:55:38.035Z,22.69
2019-05-26T17:56:38.029Z,22.67
2019-05-26T17:57:38.024Z,22.70
2019-05-26T17:58:38.022Z,22.63
2019-05-26T17:59:38.001Z,22.60
2019-05-26T18:00:37.983Z,22.70
2019-05-26T18:01:37.977Z,22.67
2019-05-26T18:02:50.156Z,22.74
2019-05-26T18:03:37.995Z,22.66
2019-05-26T18:06:37.941Z,22.72
2019-05-26T18:07:37.908Z,22.61
2019-05-26T18:08:37.910Z,22.63
2019-05-26T18:09:44.107Z,22.64
2019-05-26T18:11:37.930Z,22.69
2019-05-26T18:12:37.868Z,22.70
2019-05-26T18:13:37.845Z,22.72
2019-05-26T18:14:37.845Z,22.69
2019-05-26T18:15:37.831Z,22.66
2019-05-26T18:16:37.865Z,22.72
2019-05-26T18:17:46.859Z,22.64
2019-05-26T18:18:38.790Z,22.63
2019-05-26T18:19:37.807Z,22.66
2019-05-26T18:20:37.772Z,22.67
2019-05-26T18:21:37.775Z,22.66
2019-05-26T18:22:37.772Z,22.66
2019-05-26T18:23:37.739Z,22.64
2019-05-26T18:24:37.733Z,22.59
2019-05-26T18:26:37.720Z,22.69
2019-05-26T18:27:37.701Z,22.70
2019-05-26T18:28:37.683Z,22.66
2019-05-26T18:29:37.833Z,22.66
2019-05-26T18:30:37.664Z,22.64
2019-05-26T18:31:37.702Z,22.70
2019-05-26T18:32:37.641Z,22.70
2019-05-26T18:33:48.119Z,22.63
2019-05-26T18:34:37.621Z,22.69
2019-05-26T18:36:37.604Z,22.61
2019-05-26T18:38:38.324Z,22.69
2019-05-26T18:39:37.573Z,22.66
2019-05-26T18:40:37.560Z,22.69
2019-05-26T18:42:37.600Z,22.66
2019-05-26T18:43:37.532Z,22.64
2019-05-26T18:44:37.515Z,22.63
2019-05-26T18:45:37.507Z,22.60
2019-05-26T18:46:37.500Z,22.67
2019-05-26T18:47:37.486Z,22.67
2019-05-26T18:48:37.483Z,22.67
2019-05-26T18:49:37.472Z,22.70
2019-05-26T18:50:37.455Z,22.69